Time;durP1;ratioP1;P1;durP2;ratioP2;P2;SDS_P1;SDS_P2;PMS_P1;PMS_P2;Temp;Humidity;BMP_temperature;BMP_pressure;BME280_temperature;BME280_humidity;BME280_pressure;Samples;Min_cycle;Max_cycle;Signal;HPM_P1;HPM_P2
2023/06/19 00:00:19;;;;;;;2.85;1.50;;;10.10;99.90;;;;;;4972972;28;20236;-79
2023/06/19 00:02:52;;;;;;;2.83;1.20;;;10.30;99.90;;;;;;4974079;28;20207;-77
2023/06/19 00:05:24;;;;;;;3.40;1.45;;;10.40;99.90;;;;;;4972499;28;20204;-79
2023/06/19 00:07:58;;;;;;;2.70;1.40;;;10.50;99.90;;;;;;4971312;28;20206;-79
2023/06/19 00:10:29;;;;;;;3.28;1.50;;;10.60;99.90;;;;;;4965117;28;20208;-77
2023/06/19 00:13:00;;;;;;;7.75;1.70;;;10.60;99.90;;;;;;4971167;28;20231;-80
2023/06/19 00:15:31;;;;;;;12.90;2.08;;;10.80;99.90;;;;;;4957351;28;20192;-80
2023/06/19 00:18:02;;;;;;;6.20;1.33;;;10.90;99.90;;;;;;4967428;28;20192;-79
2023/06/19 00:20:34;;;;;;;10.15;1.65;;;10.90;99.90;;;;;;4972810;28;20210;-77
2023/06/19 00:23:11;;;;;;;5.85;1.30;;;11.00;99.90;;;;;;4972485;28;20581;-80
2023/06/19 00:25:43;;;;;;;3.10;1.20;;;11.20;99.90;;;;;;4973364;28;20210;-79
2023/06/19 00:28:14;;;;;;;4.72;1.17;;;11.30;99.90;;;;;;4971610;28;20200;-79
2023/06/19 00:30:46;;;;;;;2.50;0.90;;;11.40;99.90;;;;;;4974001;28;20200;-77
2023/06/19 00:33:20;;;;;;;4.32;1.00;;;11.60;99.90;;;;;;4965671;28;20209;-78
2023/06/19 00:35:55;;;;;;;3.13;1.00;;;11.80;99.90;;;;;;4955695;28;20280;-78
2023/06/19 00:38:31;;;;;;;3.08;1.00;;;11.90;99.90;;;;;;4968750;28;20586;-78
2023/06/19 00:41:04;;;;;;;3.83;1.20;;;12.00;99.90;;;;;;4973300;28;20615;-79
2023/06/19 00:43:35;;;;;;;3.28;0.88;;;12.10;99.90;;;;;;4972938;28;20201;-80
2023/06/19 00:46:09;;;;;;;4.65;1.10;;;12.20;99.90;;;;;;4965406;28;20295;-79
2023/06/19 00:48:42;;;;;;;2.88;1.02;;;12.20;99.90;;;;;;4974125;28;20655;-79
2023/06/19 00:51:15;;;;;;;3.47;1.20;;;12.30;99.90;;;;;;4973569;28;20342;-78
2023/06/19 00:53:53;;;;;;;4.80;1.00;;;12.40;99.90;;;;;;4973892;28;20705;-80
2023/06/19 00:56:24;;;;;;;3.58;0.90;;;12.60;99.90;;;;;;4969757;28;20648;-80
2023/06/19 00:58:59;;;;;;;3.90;1.00;;;12.60;99.90;;;;;;4971689;28;20322;-79
2023/06/19 01:01:32;;;;;;;3.08;1.05;;;12.70;99.90;;;;;;4972303;28;20231;-80
2023/06/19 01:04:05;;;;;;;3.15;0.88;;;12.80;99.90;;;;;;4970492;28;20299;-79
2023/06/19 01:06:46;;;;;;;14.07;1.73;;;12.80;99.90;;;;;;4969214;28;20208;-79
2023/06/19 01:09:32;;;;;;;4.40;1.13;;;13.00;99.90;;;;;;4966074;28;20200;-81
2023/06/19 01:12:12;;;;;;;4.20;0.90;;;13.10;99.90;;;;;;4973363;28;20251;-75
2023/06/19 01:14:52;;;;;;;1.40;0.50;;;13.20;99.90;;;;;;4967291;28;20226;-77
2023/06/19 01:17:24;;;;;;;2.80;0.70;;;13.40;99.90;;;;;;4968863;28;20196;-79
2023/06/19 01:19:56;;;;;;;1.80;0.52;;;13.40;99.90;;;;;;4974322;28;20215;-78
2023/06/19 01:22:34;;;;;;;1.85;0.60;;;13.50;99.90;;;;;;4973798;28;20259;-77
2023/06/19 01:25:06;;;;;;;1.10;0.60;;;13.70;99.90;;;;;;4973305;28;20207;-80
2023/06/19 01:27:37;;;;;;;0.63;0.45;;;13.70;99.90;;;;;;4971371;28;20204;-81
2023/06/19 01:30:10;;;;;;;1.30;0.68;;;13.70;99.90;;;;;;4972861;28;20291;-79
2023/06/19 01:32:50;;;;;;;1.40;0.50;;;13.70;99.90;;;;;;4973743;28;20196;-76
2023/06/19 01:35:24;;;;;;;1.40;0.45;;;13.80;99.90;;;;;;4972851;28;20274;-78
2023/06/19 01:37:59;;;;;;;1.75;0.75;;;13.80;99.90;;;;;;4964492;28;20204;-78
2023/06/19 01:40:33;;;;;;;3.55;0.50;;;14.00;99.90;;;;;;4966521;28;20206;-77
2023/06/19 01:43:06;;;;;;;1.08;0.60;;;14.00;99.90;;;;;;4963351;28;20595;-77
2023/06/19 01:45:38;;;;;;;1.83;0.60;;;14.10;99.90;;;;;;4973416;28;20200;-77
2023/06/19 01:48:11;;;;;;;2.45;0.70;;;14.10;99.90;;;;;;4972229;28;20204;-78
2023/06/19 01:50:43;;;;;;;1.75;0.60;;;14.20;99.90;;;;;;4974079;28;20211;-78
2023/06/19 01:53:16;;;;;;;2.25;0.63;;;14.20;99.90;;;;;;4972632;28;20334;-79
2023/06/19 01:55:48;;;;;;;1.85;0.68;;;14.20;99.90;;;;;;4971116;28;20209;-79
2023/06/19 01:58:19;;;;;;;1.60;0.50;;;14.30;99.90;;;;;;4970104;28;20239;-78
2023/06/19 02:00:50;;;;;;;3.85;0.60;;;14.30;99.90;;;;;;4964584;28;20258;-77
2023/06/19 02:03:22;;;;;;;3.80;0.70;;;14.20;99.90;;;;;;4954921;28;20205;-78
2023/06/19 02:05:54;;;;;;;3.97;0.95;;;14.40;99.90;;;;;;4959476;28;20226;-79
2023/06/19 02:08:27;;;;;;;2.95;0.80;;;14.40;99.90;;;;;;4969410;28;20243;-79
2023/06/19 02:10:58;;;;;;;2.15;0.80;;;14.40;99.90;;;;;;4959058;28;20213;-79
2023/06/19 02:13:29;;;;;;;2.25;0.80;;;14.50;99.90;;;;;;4964264;28;20589;-79
2023/06/19 02:16:01;;;;;;;4.25;0.82;;;14.60;99.90;;;;;;4975837;28;20205;-79
2023/06/19 02:18:32;;;;;;;3.55;0.85;;;14.80;99.90;;;;;;4975887;28;20209;-80
2023/06/19 02:21:03;;;;;;;1.75;0.68;;;15.00;99.90;;;;;;4975724;28;20192;-78
2023/06/19 02:23:37;;;;;;;3.35;1.00;;;15.10;99.90;;;;;;4976716;28;20215;-77
2023/06/19 02:26:09;;;;;;;1.38;0.70;;;15.20;99.90;;;;;;4976269;28;20215;-79
2023/06/19 02:28:40;;;;;;;1.83;0.80;;;15.20;99.90;;;;;;4976383;28;20208;-82
2023/06/19 02:31:11;;;;;;;4.65;1.20;;;15.20;99.90;;;;;;4958012;28;20195;-79
2023/06/19 02:33:49;;;;;;;2.95;0.88;;;15.20;99.90;;;;;;4963253;28;20216;-78
2023/06/19 02:36:20;;;;;;;4.38;0.70;;;15.30;99.90;;;;;;4975615;28;20422;-78
2023/06/19 02:38:53;;;;;;;3.13;0.80;;;15.30;99.90;;;;;;4965832;28;20726;-79
2023/06/19 02:41:25;;;;;;;2.55;0.70;;;15.30;99.90;;;;;;4974927;28;20200;-78
2023/06/19 02:43:56;;;;;;;2.13;0.68;;;15.40;99.90;;;;;;4974123;28;20201;-81
2023/06/19 02:46:28;;;;;;;2.95;0.88;;;15.40;99.90;;;;;;4962959;28;20223;-77
2023/06/19 02:49:09;;;;;;;2.10;0.68;;;15.40;99.90;;;;;;4968333;28;20636;-76
2023/06/19 02:51:40;;;;;;;2.63;0.70;;;15.40;99.90;;;;;;4975938;28;20243;-80
2023/06/19 02:54:13;;;;;;;1.13;0.40;;;15.50;99.90;;;;;;4971223;28;20226;-71
2023/06/19 02:56:44;;;;;;;1.92;0.80;;;15.60;99.90;;;;;;4974386;28;20269;-76
2023/06/19 02:59:15;;;;;;;1.25;0.73;;;15.60;99.90;;;;;;4973631;28;20250;-77
2023/06/19 03:01:47;;;;;;;2.38;0.57;;;15.60;99.90;;;;;;4975939;28;20666;-77
2023/06/19 03:04:18;;;;;;;1.42;0.75;;;15.60;99.90;;;;;;4975249;28;20240;-76
2023/06/19 03:06:50;;;;;;;1.35;0.60;;;15.70;99.90;;;;;;4974557;28;20216;-78
2023/06/19 03:09:23;;;;;;;2.13;0.77;;;15.80;99.90;;;;;;4975276;28;20284;-79
2023/06/19 03:11:54;;;;;;;1.58;0.80;;;15.90;99.90;;;;;;4976536;28;20199;-78
2023/06/19 03:14:25;;;;;;;1.13;0.70;;;16.00;99.90;;;;;;4973717;28;20335;-77
2023/06/19 03:16:56;;;;;;;3.53;0.57;;;16.00;99.90;;;;;;4967113;28;20204;-79
2023/06/19 03:19:28;;;;;;;1.95;0.70;;;16.10;99.90;;;;;;4973363;28;20228;-79
2023/06/19 03:21:59;;;;;;;2.15;0.70;;;16.10;99.90;;;;;;4973075;28;20201;-78
2023/06/19 03:24:32;;;;;;;1.85;1.10;;;16.10;99.90;;;;;;4975629;28;20211;-77
2023/06/19 03:27:03;;;;;;;2.35;0.65;;;16.10;99.90;;;;;;4975188;28;20279;-78
2023/06/19 03:29:34;;;;;;;2.53;0.73;;;16.10;99.90;;;;;;4975317;28;20227;-80
2023/06/19 03:32:05;;;;;;;1.08;0.60;;;16.10;99.90;;;;;;4974766;28;20271;-79
2023/06/19 03:34:37;;;;;;;2.67;0.73;;;16.10;99.90;;;;;;4974466;28;20226;-79
2023/06/19 03:37:10;;;;;;;1.83;0.75;;;16.20;99.90;;;;;;4974974;28;20200;-78
2023/06/19 03:39:43;;;;;;;4.15;0.65;;;16.30;99.90;;;;;;4970340;28;20196;-77
2023/06/19 03:42:15;;;;;;;1.13;0.60;;;16.30;99.90;;;;;;4974311;28;20192;-80
2023/06/19 03:44:46;;;;;;;2.85;0.70;;;16.30;99.90;;;;;;4973185;28;20207;-79
2023/06/19 03:47:17;;;;;;;1.42;0.52;;;16.20;99.90;;;;;;4974984;28;20234;-80
2023/06/19 03:49:48;;;;;;;1.70;0.60;;;16.20;99.90;;;;;;4974547;28;20204;-76
2023/06/19 03:52:19;;;;;;;1.85;0.60;;;16.30;99.90;;;;;;4959638;28;20664;-79
2023/06/19 03:54:52;;;;;;;1.40;0.70;;;16.30;99.90;;;;;;4974074;28;20220;-80
2023/06/19 03:57:24;;;;;;;1.40;0.60;;;16.40;99.90;;;;;;4974826;28;20208;-79
2023/06/19 03:59:55;;;;;;;2.28;0.63;;;16.50;99.90;;;;;;4973706;28;20250;-79
2023/06/19 04:02:26;;;;;;;3.17;0.70;;;16.50;99.90;;;;;;4974698;28;20196;-80
2023/06/19 04:04:58;;;;;;;0.70;0.40;;;16.60;99.90;;;;;;4974943;28;20578;-78
2023/06/19 04:07:31;;;;;;;1.95;0.60;;;16.60;99.90;;;;;;4974142;28;20276;-80
2023/06/19 04:10:05;;;;;;;2.88;0.60;;;16.60;99.90;;;;;;4967092;28;20204;-77
2023/06/19 04:12:36;;;;;;;3.10;0.60;;;16.70;99.90;;;;;;4973586;28;20223;-79
2023/06/19 04:15:08;;;;;;;1.27;0.47;;;16.70;99.90;;;;;;4975244;28;20220;-75
2023/06/19 04:17:39;;;;;;;1.50;0.40;;;16.80;99.90;;;;;;4975212;28;20648;-74
2023/06/19 04:20:13;;;;;;;1.50;0.60;;;16.80;99.90;;;;;;4968591;28;20276;-78
2023/06/19 04:22:45;;;;;;;2.22;0.43;;;16.70;99.90;;;;;;4970214;28;20200;-78
2023/06/19 04:25:20;;;;;;;3.03;0.60;;;16.80;99.90;;;;;;4962789;28;20196;-80
2023/06/19 04:27:53;;;;;;;1.13;0.60;;;16.80;99.90;;;;;;4973911;28;20196;-78
2023/06/19 04:30:28;;;;;;;1.75;0.60;;;16.80;99.90;;;;;;4973081;28;20212;-80
2023/06/19 04:33:02;;;;;;;1.70;0.55;;;16.80;99.90;;;;;;4971531;28;20269;-80
2023/06/19 04:35:34;;;;;;;1.77;0.88;;;16.90;99.90;;;;;;4966055;28;20223;-79
2023/06/19 04:38:08;;;;;;;0.93;0.70;;;16.90;99.90;;;;;;4969700;28;20208;-77
2023/06/19 04:40:44;;;;;;;1.65;0.60;;;16.90;99.90;;;;;;4972194;28;20200;-80
2023/06/19 04:43:17;;;;;;;2.38;0.70;;;16.90;99.90;;;;;;4971295;28;20211;-79
2023/06/19 04:45:50;;;;;;;2.92;0.47;;;17.00;99.90;;;;;;4972582;28;20307;-81
2023/06/19 04:48:25;;;;;;;0.85;0.30;;;17.00;99.90;;;;;;4974657;28;20215;-76
2023/06/19 04:51:00;;;;;;;1.05;0.30;;;17.00;99.90;;;;;;4974768;28;20663;-79
2023/06/19 04:53:31;;;;;;;0.57;0.40;;;16.90;99.90;;;;;;4975274;28;20203;-79
2023/06/19 04:56:08;;;;;;;2.63;0.40;;;17.00;99.90;;;;;;4974915;28;20251;-77
2023/06/19 04:58:45;;;;;;;5.57;0.63;;;17.00;99.90;;;;;;4974486;28;20253;-75
2023/06/19 05:01:16;;;;;;;1.77;0.60;;;17.00;99.90;;;;;;4974608;28;20203;-75
2023/06/19 05:03:48;;;;;;;1.77;0.32;;;17.00;99.90;;;;;;4974637;28;20291;-79
2023/06/19 05:06:19;;;;;;;0.75;0.40;;;17.00;99.90;;;;;;4974633;28;20589;-75
2023/06/19 05:08:50;;;;;;;2.08;0.60;;;17.00;99.90;;;;;;4974552;28;20654;-77
2023/06/19 05:11:26;;;;;;;1.60;0.60;;;17.10;99.90;;;;;;4974920;28;20558;-77
2023/06/19 05:13:58;;;;;;;2.10;0.63;;;17.10;99.90;;;;;;4973290;28;20218;-77
2023/06/19 05:16:33;;;;;;;2.15;0.50;;;17.20;99.90;;;;;;4974350;28;20196;-81
2023/06/19 05:19:05;;;;;;;4.68;0.68;;;17.10;99.90;;;;;;4973523;28;20200;-78
2023/06/19 05:21:38;;;;;;;2.90;0.47;;;17.10;99.90;;;;;;4974366;28;20652;-78
2023/06/19 05:24:13;;;;;;;1.45;0.50;;;17.10;99.90;;;;;;4974604;28;20197;-78
2023/06/19 05:26:49;;;;;;;3.30;0.52;;;17.00;99.90;;;;;;4974783;28;20287;-79
2023/06/19 05:29:22;;;;;;;2.65;0.47;;;17.10;99.90;;;;;;4975343;28;20196;-79
2023/06/19 05:31:53;;;;;;;2.67;0.52;;;17.00;99.90;;;;;;4973312;28;20604;-78
2023/06/19 05:34:27;;;;;;;1.88;0.65;;;17.00;99.90;;;;;;4974367;28;20268;-77
2023/06/19 05:37:00;;;;;;;2.58;0.60;;;17.00;99.90;;;;;;4973328;28;20188;-78
2023/06/19 05:39:33;;;;;;;5.88;0.70;;;16.90;99.90;;;;;;4973222;28;20570;-76
2023/06/19 05:42:09;;;;;;;3.88;0.60;;;16.90;99.90;;;;;;4973459;28;20243;-79
2023/06/19 05:44:42;;;;;;;2.97;0.60;;;16.90;99.90;;;;;;4976598;28;20278;-75
2023/06/19 05:47:16;;;;;;;1.98;0.82;;;16.90;99.90;;;;;;4976803;28;20223;-80
2023/06/19 05:49:47;;;;;;;4.47;0.70;;;16.90;99.90;;;;;;4978526;28;20670;-78
2023/06/19 05:52:19;;;;;;;4.22;0.60;;;16.80;99.90;;;;;;4978046;28;20196;-79
2023/06/19 05:54:50;;;;;;;1.67;0.57;;;16.80;99.90;;;;;;4977987;28;20303;-77
2023/06/19 05:57:23;;;;;;;1.83;0.60;;;16.70;99.90;;;;;;4977675;28;20273;-79
2023/06/19 05:59:54;;;;;;;1.38;0.63;;;16.70;99.90;;;;;;4977811;28;20271;-79
2023/06/19 06:02:28;;;;;;;1.45;0.47;;;16.60;99.90;;;;;;4978153;28;20715;-78
2023/06/19 06:04:59;;;;;;;1.60;0.60;;;16.60;99.90;;;;;;4977776;28;20283;-79
2023/06/19 06:07:30;;;;;;;2.45;0.80;;;16.60;99.90;;;;;;4977797;28;20188;-78
2023/06/19 06:10:01;;;;;;;3.53;0.63;;;16.50;99.90;;;;;;4977734;28;20659;-79
2023/06/19 06:12:37;;;;;;;2.13;0.70;;;16.50;99.90;;;;;;4977668;28;20200;-79
2023/06/19 06:15:09;;;;;;;2.30;0.70;;;16.40;99.90;;;;;;4977629;28;20579;-77
2023/06/19 06:17:41;;;;;;;1.50;0.55;;;16.40;99.90;;;;;;4977728;28;20671;-78
2023/06/19 06:20:15;;;;;;;3.25;0.70;;;16.30;99.90;;;;;;4977638;28;20193;-79
2023/06/19 06:22:48;;;;;;;2.80;0.70;;;16.30;99.90;;;;;;4977949;28;20200;-78
2023/06/19 06:25:19;;;;;;;1.27;0.65;;;16.20;99.90;;;;;;4977898;28;20279;-79
2023/06/19 06:27:52;;;;;;;0.98;0.52;;;16.10;99.90;;;;;;4977474;28;20235;-80
2023/06/19 06:30:23;;;;;;;1.63;0.60;;;16.10;99.90;;;;;;4977472;28;20192;-76
2023/06/19 06:32:55;;;;;;;1.38;0.70;;;16.00;99.90;;;;;;4977573;28;20238;-78
2023/06/19 06:35:26;;;;;;;3.10;0.75;;;16.00;99.90;;;;;;4978402;28;20682;-76
2023/06/19 06:37:57;;;;;;;2.92;0.60;;;15.90;99.90;;;;;;4977667;28;20192;-78
2023/06/19 06:40:28;;;;;;;2.78;0.63;;;15.80;99.90;;;;;;4977196;28;20196;-78
2023/06/19 06:43:01;;;;;;;2.70;0.65;;;15.80;99.90;;;;;;4977086;28;20188;-78
2023/06/19 06:45:37;;;;;;;1.33;0.68;;;15.70;99.90;;;;;;4977199;28;20192;-77
2023/06/19 06:48:11;;;;;;;2.80;0.80;;;15.70;99.90;;;;;;4977023;28;20200;-79
2023/06/19 06:50:43;;;;;;;2.17;0.50;;;15.60;99.90;;;;;;4977054;28;20199;-77
2023/06/19 06:53:14;;;;;;;1.55;0.50;;;15.60;99.90;;;;;;4977335;28;20203;-79
2023/06/19 06:55:45;;;;;;;1.40;0.50;;;15.50;99.90;;;;;;4976360;28;20227;-77
2023/06/19 06:58:19;;;;;;;2.10;0.60;;;15.50;99.90;;;;;;4976460;28;20557;-77
2023/06/19 07:00:50;;;;;;;1.95;0.80;;;15.40;99.90;;;;;;4977391;28;20561;-79
2023/06/19 07:03:21;;;;;;;1.45;0.70;;;15.40;99.90;;;;;;4976850;28;20582;-79
2023/06/19 07:05:53;;;;;;;4.38;0.80;;;15.20;99.90;;;;;;4976864;28;20202;-79
2023/06/19 07:08:25;;;;;;;1.83;0.90;;;15.20;99.90;;;;;;4977376;28;20372;-79
2023/06/19 07:10:57;;;;;;;2.30;1.08;;;15.10;99.90;;;;;;4976812;28;20247;-79
2023/06/19 07:13:39;;;;;;;2.10;1.00;;;15.00;99.90;;;;;;4974292;28;20212;-78
2023/06/19 07:16:11;;;;;;;1.83;0.80;;;14.90;99.90;;;;;;4959307;28;20275;-79
2023/06/19 07:18:43;;;;;;;2.08;0.82;;;14.80;99.90;;;;;;4956264;29;20219;-79
2023/06/19 07:21:18;;;;;;;1.70;0.90;;;14.80;99.90;;;;;;4957859;28;20672;-78
2023/06/19 07:23:51;;;;;;;2.30;0.70;;;14.60;99.90;;;;;;4940801;29;20219;-79
2023/06/19 07:26:24;;;;;;;2.20;0.68;;;14.50;99.90;;;;;;4954791;29;20208;-78
2023/06/19 07:29:01;;;;;;;1.75;0.80;;;14.50;99.90;;;;;;4957125;28;20193;-79
2023/06/19 07:31:34;;;;;;;3.22;0.82;;;14.50;99.90;;;;;;4955959;29;20197;-78
2023/06/19 07:34:06;;;;;;;1.50;0.90;;;14.40;99.90;;;;;;4955963;29;20205;-78
2023/06/19 07:36:39;;;;;;;3.28;0.90;;;14.40;99.90;;;;;;4956833;28;20233;-79
2023/06/19 07:39:11;;;;;;;3.35;1.20;;;14.40;99.90;;;;;;4957471;28;20259;-78
2023/06/19 07:41:45;;;;;;;2.97;1.00;;;14.30;99.90;;;;;;4956566;28;20280;-78
2023/06/19 07:44:21;;;;;;;2.30;0.80;;;14.30;99.90;;;;;;4956728;28;20260;-78
2023/06/19 07:46:53;;;;;;;2.80;1.05;;;14.20;99.90;;;;;;4955762;29;20271;-78
2023/06/19 07:49:26;;;;;;;3.47;1.33;;;14.20;99.90;;;;;;4956787;28;20197;-79
2023/06/19 07:51:59;;;;;;;2.60;1.52;;;14.10;99.90;;;;;;4955535;29;20221;-78
2023/06/19 07:54:30;;;;;;;2.80;1.70;;;14.10;99.90;;;;;;4956285;28;20255;-78
2023/06/19 07:57:05;;;;;;;3.70;1.52;;;13.90;99.90;;;;;;4955585;29;20228;-78
2023/06/19 07:59:40;;;;;;;1.55;1.10;;;13.90;99.90;;;;;;4956313;28;20698;-78
2023/06/19 08:02:14;;;;;;;3.20;1.20;;;13.80;99.90;;;;;;4956547;28;20197;-78
2023/06/19 08:04:47;;;;;;;3.15;1.35;;;13.80;99.90;;;;;;4955920;28;20212;-78
2023/06/19 08:07:20;;;;;;;2.53;0.95;;;13.70;99.90;;;;;;4955525;28;20276;-78
2023/06/19 08:09:52;;;;;;;1.98;0.90;;;13.70;99.90;;;;;;4956316;28;20204;-78
2023/06/19 08:12:25;;;;;;;2.15;0.80;;;13.80;99.90;;;;;;4957402;28;20193;-78
2023/06/19 08:15:01;;;;;;;1.67;0.93;;;13.90;99.90;;;;;;4956052;29;20197;-77
2023/06/19 08:17:34;;;;;;;3.80;1.10;;;14.00;99.90;;;;;;4956553;28;20542;-77
2023/06/19 08:20:06;;;;;;;2.25;0.88;;;14.10;99.90;;;;;;4956214;28;20645;-78
2023/06/19 08:22:39;;;;;;;1.90;0.80;;;14.20;99.90;;;;;;4956045;28;20267;-78
2023/06/19 08:25:12;;;;;;;2.60;1.05;;;14.20;99.90;;;;;;4955907;28;20197;-78
2023/06/19 08:27:45;;;;;;;2.42;0.90;;;14.20;99.90;;;;;;4956074;28;20209;-78
2023/06/19 08:30:21;;;;;;;2.60;0.65;;;14.10;99.90;;;;;;4955908;28;20196;-78
2023/06/19 08:32:53;;;;;;;1.70;0.80;;;14.10;99.90;;;;;;4955962;28;20200;-77
2023/06/19 08:35:26;;;;;;;2.38;1.00;;;14.10;99.90;;;;;;4954654;29;20262;-77
2023/06/19 08:37:58;;;;;;;2.83;0.80;;;14.10;99.90;;;;;;4954461;29;20208;-78
2023/06/19 08:40:31;;;;;;;1.85;0.80;;;14.10;99.90;;;;;;4955868;28;20228;-78
2023/06/19 08:43:06;;;;;;;2.15;0.73;;;14.20;99.90;;;;;;4954457;29;20576;-78
2023/06/19 08:45:42;;;;;;;3.30;0.80;;;14.10;99.90;;;;;;4956070;28;20197;-78
2023/06/19 08:48:19;;;;;;;1.73;0.80;;;14.10;99.90;;;;;;4955679;28;20283;-78
2023/06/19 08:50:54;;;;;;;1.65;0.82;;;14.10;99.90;;;;;;4955820;28;20280;-77
2023/06/19 08:53:26;;;;;;;1.58;0.80;;;14.00;99.90;;;;;;4954275;29;20217;-77
2023/06/19 08:56:00;;;;;;;0.95;0.80;;;14.00;99.90;;;;;;4939365;29;20286;-78
2023/06/19 08:58:34;;;;;;;2.10;0.80;;;13.90;99.90;;;;;;4955437;28;20239;-79
2023/06/19 09:01:10;;;;;;;2.38;0.93;;;13.90;99.90;;;;;;4939145;29;20208;-78
2023/06/19 09:03:44;;;;;;;1.85;0.90;;;13.90;99.90;;;;;;4965542;28;20196;-79
2023/06/19 09:06:20;;;;;;;1.70;0.90;;;13.80;99.90;;;;;;4972929;28;20556;-78
2023/06/19 09:09:03;;;;;;;3.58;1.08;;;13.80;99.90;;;;;;4974022;28;20553;-77
2023/06/19 09:11:34;;;;;;;2.38;0.98;;;13.80;99.90;;;;;;4973383;28;20197;-77
2023/06/19 09:14:05;;;;;;;1.80;1.00;;;13.70;99.90;;;;;;4973303;28;20202;-78
2023/06/19 09:16:46;;;;;;;2.30;1.10;;;13.70;99.90;;;;;;4972492;28;20224;-78
2023/06/19 09:19:24;;;;;;;3.95;1.10;;;13.60;99.90;;;;;;4963429;28;20200;-79
2023/06/19 09:21:55;;;;;;;2.85;1.00;;;13.60;99.90;;;;;;4969614;28;20208;-79
2023/06/19 09:24:26;;;;;;;1.35;0.85;;;13.50;99.90;;;;;;4969397;28;20656;-79
2023/06/19 09:27:13;;;;;;;2.35;1.10;;;13.50;99.90;;;;;;4972988;28;20214;-79
2023/06/19 09:29:44;;;;;;;3.47;1.20;;;13.40;99.90;;;;;;4968517;28;20231;-79
2023/06/19 09:32:22;;;;;;;3.50;1.10;;;13.40;99.90;;;;;;4973179;28;20622;-79
2023/06/19 09:34:54;;;;;;;2.78;1.08;;;13.30;99.90;;;;;;4972269;28;20226;-79
2023/06/19 09:37:26;;;;;;;1.90;1.15;;;13.30;99.90;;;;;;4971715;28;20222;-79
2023/06/19 09:40:00;;;;;;;1.60;0.90;;;13.20;99.90;;;;;;4974260;28;20200;-78
2023/06/19 09:42:34;;;;;;;2.05;1.40;;;13.10;99.90;;;;;;4967326;28;20207;-79
2023/06/19 09:45:07;;;;;;;2.60;1.20;;;13.10;99.90;;;;;;4974107;28;20652;-78
2023/06/19 09:47:51;;;;;;;1.73;1.00;;;13.10;99.90;;;;;;4972664;28;20219;-80
2023/06/19 09:50:27;;;;;;;3.58;1.10;;;13.00;99.90;;;;;;4971539;28;20578;-79
2023/06/19 09:53:01;;;;;;;2.97;1.30;;;13.00;99.90;;;;;;4973623;28;20203;-78
2023/06/19 09:55:34;;;;;;;2.40;1.20;;;13.00;99.90;;;;;;4967174;28;20703;-79
2023/06/19 09:58:09;;;;;;;2.78;1.17;;;13.00;99.90;;;;;;4972067;28;20234;-79
2023/06/19 10:00:45;;;;;;;2.08;1.20;;;13.00;99.90;;;;;;4974266;28;20583;-78
2023/06/19 10:03:21;;;;;;;2.08;1.13;;;12.90;99.90;;;;;;4972946;28;20246;-79
2023/06/19 10:06:03;;;;;;;1.88;1.30;;;12.90;99.90;;;;;;4974176;28;20242;-78
2023/06/19 10:08:43;;;;;;;3.03;1.40;;;12.90;99.90;;;;;;4973135;28;20200;-78
2023/06/19 10:11:14;;;;;;;2.22;1.10;;;13.00;99.90;;;;;;4972252;28;20240;-78
2023/06/19 10:13:46;;;;;;;3.17;1.20;;;13.00;99.90;;;;;;4971918;28;20204;-78
2023/06/19 10:16:30;;;;;;;2.45;1.00;;;13.00;99.90;;;;;;4973745;28;20678;-78
2023/06/19 10:19:14;;;;;;;2.67;1.42;;;13.00;99.90;;;;;;4971734;28;20312;-79
2023/06/19 10:21:53;;;;;;;2.35;1.27;;;13.00;99.90;;;;;;4972873;28;20648;-79
2023/06/19 10:24:27;;;;;;;3.28;1.10;;;13.00;99.90;;;;;;4973095;28;20204;-78
2023/06/19 10:27:04;;;;;;;4.13;1.45;;;13.00;99.90;;;;;;4973516;28;20601;-79
2023/06/19 10:29:45;;;;;;;8.70;1.80;;;13.00;99.90;;;;;;4972415;28;20200;-79
2023/06/19 10:32:17;;;;;;;2.22;1.20;;;13.00;99.90;;;;;;4962954;28;20204;-79
2023/06/19 10:34:54;;;;;;;2.47;1.20;;;13.00;99.90;;;;;;4971386;28;20303;-79
2023/06/19 10:37:37;;;;;;;3.53;1.40;;;12.90;99.90;;;;;;4977061;28;20263;-79
2023/06/19 10:40:10;;;;;;;1.88;1.10;;;13.00;99.90;;;;;;4974811;28;20208;-79
2023/06/19 10:42:43;;;;;;;1.92;1.02;;;13.00;99.90;;;;;;4974801;28;20738;-80
2023/06/19 10:45:17;;;;;;;1.67;1.00;;;13.10;99.90;;;;;;4964698;28;20208;-78
2023/06/19 10:47:48;;;;;;;1.83;0.90;;;13.10;99.90;;;;;;4976967;28;20222;-78
2023/06/19 10:50:24;;;;;;;2.53;1.02;;;13.10;99.90;;;;;;4975027;28;20208;-78
2023/06/19 10:53:01;;;;;;;2.50;1.20;;;13.10;99.90;;;;;;4976091;28;20195;-79
2023/06/19 10:55:34;;;;;;;2.35;1.02;;;13.10;99.90;;;;;;4974906;28;20287;-78
2023/06/19 10:58:07;;;;;;;3.88;1.20;;;13.10;99.90;;;;;;4970916;28;20243;-79
2023/06/19 11:00:40;;;;;;;1.42;1.00;;;13.10;99.90;;;;;;4976965;28;20211;-78
2023/06/19 11:03:11;;;;;;;3.33;0.90;;;13.20;99.90;;;;;;4976521;28;20215;-79
2023/06/19 11:05:47;;;;;;;2.42;0.93;;;13.20;99.90;;;;;;4977032;28;20204;-78
2023/06/19 11:08:22;;;;;;;1.20;0.70;;;13.20;99.90;;;;;;4973910;28;20223;-79
2023/06/19 11:10:54;;;;;;;1.67;0.68;;;13.20;99.90;;;;;;4971288;28;20682;-78
2023/06/19 11:13:25;;;;;;;1.67;0.60;;;13.20;99.90;;;;;;4964656;28;20201;-78
2023/06/19 11:15:57;;;;;;;2.55;0.73;;;13.10;99.90;;;;;;4956148;28;20205;-77
2023/06/19 11:18:28;;;;;;;1.95;0.90;;;13.10;99.90;;;;;;4972421;28;20196;-76
2023/06/19 11:21:02;;;;;;;1.70;0.75;;;13.10;99.90;;;;;;4972498;28;20296;-78
2023/06/19 11:23:34;;;;;;;1.25;0.57;;;13.10;99.90;;;;;;4975895;28;20206;-78
2023/06/19 11:26:09;;;;;;;1.38;0.60;;;13.10;99.90;;;;;;4972296;28;20276;-79
2023/06/19 11:28:41;;;;;;;1.13;0.30;;;13.10;99.90;;;;;;4975703;28;20258;-75
2023/06/19 11:31:12;;;;;;;0.95;0.38;;;13.10;99.90;;;;;;4976212;28;20203;-77
2023/06/19 11:33:43;;;;;;;2.55;0.40;;;13.20;99.90;;;;;;4957621;28;20599;-77
2023/06/19 11:36:16;;;;;;;0.35;0.30;;;13.20;99.90;;;;;;4974514;28;20204;-78
2023/06/19 11:38:48;;;;;;;0.70;0.40;;;13.20;99.90;;;;;;4975589;28;20200;-80
2023/06/19 11:41:29;;;;;;;1.17;0.47;;;13.20;99.90;;;;;;4975986;28;20254;-78
2023/06/19 11:44:06;;;;;;;1.05;0.40;;;13.20;99.90;;;;;;4976008;28;20659;-78
2023/06/19 11:46:38;;;;;;;0.20;0.20;;;13.10;99.90;;;;;;4975200;28;20225;-76
2023/06/19 11:49:16;;;;;;;0.43;0.30;;;13.10;99.90;;;;;;4974304;28;20196;-76
2023/06/19 11:51:50;;;;;;;0.40;0.40;;;13.10;99.90;;;;;;4975957;28;20719;-77
2023/06/19 11:54:22;;;;;;;2.10;0.32;;;13.00;99.90;;;;;;4976114;28;20563;-78
2023/06/19 11:56:53;;;;;;;0.65;0.35;;;13.00;99.90;;;;;;4975103;28;20716;-77
2023/06/19 11:59:24;;;;;;;1.02;0.40;;;13.00;99.90;;;;;;4974992;28;20298;-77
2023/06/19 12:01:57;;;;;;;0.60;0.35;;;12.90;99.90;;;;;;4975558;28;20202;-78
2023/06/19 12:04:29;;;;;;;0.30;0.30;;;12.90;99.90;;;;;;4975602;28;20211;-78
2023/06/19 12:07:03;;;;;;;0.57;0.30;;;12.80;99.90;;;;;;4975626;28;20648;-78
2023/06/19 12:09:36;;;;;;;0.47;0.40;;;12.80;99.90;;;;;;4974391;28;20594;-79
2023/06/19 12:12:08;;;;;;;0.20;0.20;;;12.70;99.90;;;;;;4975561;28;20196;-76
2023/06/19 12:14:39;;;;;;;2.05;0.40;;;12.70;99.90;;;;;;4975637;28;20642;-75
2023/06/19 12:17:10;;;;;;;0.52;0.30;;;12.70;99.90;;;;;;4975243;28;20283;-78
2023/06/19 12:19:41;;;;;;;0.40;0.40;;;12.60;99.90;;;;;;4974453;28;20207;-77
2023/06/19 12:22:17;;;;;;;0.20;0.20;;;12.60;99.90;;;;;;4973765;28;20674;-76
2023/06/19 12:24:48;;;;;;;0.40;0.30;;;12.50;99.90;;;;;;4975090;28;20588;-78
2023/06/19 12:27:21;;;;;;;0.30;0.30;;;12.50;99.90;;;;;;4975253;28;20276;-77
2023/06/19 12:29:53;;;;;;;0.22;0.22;;;12.40;99.90;;;;;;4973837;28;20205;-77
2023/06/19 12:32:26;;;;;;;1.40;0.35;;;12.40;99.90;;;;;;4974105;28;20208;-78
2023/06/19 12:34:58;;;;;;;0.30;0.30;;;12.30;99.90;;;;;;4975213;28;20260;-79
2023/06/19 12:37:35;;;;;;;0.30;0.30;;;12.30;99.90;;;;;;4975135;28;20273;-78
2023/06/19 12:40:10;;;;;;;0.40;0.30;;;12.20;99.90;;;;;;4973690;28;20222;-78
2023/06/19 12:42:43;;;;;;;0.73;0.30;;;12.20;99.90;;;;;;4964359;28;20226;-80
2023/06/19 12:45:16;;;;;;;0.30;0.30;;;12.20;99.90;;;;;;4972935;28;20203;-78
2023/06/19 12:47:47;;;;;;;0.68;0.43;;;12.10;99.90;;;;;;4973003;28;20215;-78
2023/06/19 12:50:18;;;;;;;0.55;0.30;;;12.10;99.90;;;;;;4973933;28;20208;-79
2023/06/19 12:52:54;;;;;;;0.57;0.40;;;12.00;99.90;;;;;;4972436;28;20230;-77
2023/06/19 12:55:26;;;;;;;1.05;0.30;;;12.00;99.90;;;;;;4974167;28;20210;-80
2023/06/19 12:57:57;;;;;;;0.55;0.30;;;12.00;99.90;;;;;;4963667;28;20247;-79
2023/06/19 13:00:28;;;;;;;0.65;0.40;;;11.90;99.90;;;;;;4973857;28;20613;-78
2023/06/19 13:02:59;;;;;;;1.00;0.50;;;11.90;99.90;;;;;;4960575;28;20679;-77
2023/06/19 13:05:31;;;;;;;0.65;0.50;;;11.90;99.90;;;;;;4973446;28;20205;-80
2023/06/19 13:08:04;;;;;;;0.82;0.50;;;11.90;99.90;;;;;;4973273;28;20684;-80
2023/06/19 13:10:36;;;;;;;0.55;0.30;;;11.80;99.90;;;;;;4973420;28;20674;-78
2023/06/19 13:13:07;;;;;;;0.45;0.30;;;11.80;99.90;;;;;;4972058;28;20327;-78
2023/06/19 13:15:38;;;;;;;0.40;0.40;;;11.80;99.90;;;;;;4971610;28;20707;-79